createdAt,value
2019-01-30T00:00:07.368Z,990.78
2019-01-30T00:01:07.381Z,990.75
2019-01-30T00:02:07.371Z,990.75
2019-01-30T00:03:07.376Z,990.73
2019-01-30T00:04:07.375Z,990.69
2019-01-30T00:05:07.370Z,990.71
2019-01-30T00:06:07.369Z,990.69
2019-01-30T00:07:07.369Z,990.70
2019-01-30T00:08:07.368Z,990.64
2019-01-30T00:09:07.361Z,990.67
2019-01-30T00:10:07.368Z,990.63
2019-01-30T00:11:07.361Z,990.65
2019-01-30T00:12:09.659Z,990.58
2019-01-30T00:13:07.364Z,990.59
2019-01-30T00:14:07.374Z,990.57
2019-01-30T00:15:07.367Z,990.58
2019-01-30T00:16:07.371Z,990.58
2019-01-30T00:17:07.368Z,990.53
2019-01-30T00:18:07.367Z,990.50
2019-01-30T00:19:07.365Z,990.46
2019-01-30T00:20:07.370Z,990.51
2019-01-30T00:21:07.382Z,990.48
2019-01-30T00:22:07.365Z,990.49
2019-01-30T00:23:07.360Z,990.48
2019-01-30T00:24:07.366Z,990.46
2019-01-30T00:25:07.368Z,990.41
2019-01-30T00:26:07.371Z,990.40
2019-01-30T00:27:07.386Z,990.39
2019-01-30T00:28:07.365Z,990.35
2019-01-30T00:29:07.365Z,990.36
2019-01-30T00:30:07.369Z,990.32
2019-01-30T00:31:07.372Z,990.32
2019-01-30T00:32:07.365Z,990.28
2019-01-30T00:33:07.362Z,990.25
2019-01-30T00:34:07.366Z,990.29
2019-01-30T00:35:07.364Z,990.25
2019-01-30T00:36:07.370Z,990.22
2019-01-30T00:37:07.368Z,990.19
2019-01-30T00:38:07.365Z,990.19
2019-01-30T00:39:07.355Z,990.20
2019-01-30T00:40:07.364Z,990.16
2019-01-30T00:41:07.369Z,990.12
2019-01-30T00:42:07.364Z,990.11
2019-01-30T00:43:07.425Z,990.13
2019-01-30T00:44:07.372Z,990.14
2019-01-30T00:45:07.377Z,990.13
2019-01-30T00:46:07.361Z,990.11
2019-01-30T00:47:15.826Z,990.09
2019-01-30T00:48:07.366Z,990.08
2019-01-30T00:49:07.383Z,990.09
2019-01-30T00:50:07.369Z,990.08
2019-01-30T00:51:07.391Z,990.04
2019-01-30T00:52:07.374Z,990.04
2019-01-30T00:53:07.368Z,990.04
2019-01-30T00:54:07.374Z,990.03
2019-01-30T00:55:07.360Z,990.01
2019-01-30T00:56:07.412Z,990.00
2019-01-30T00:57:07.367Z,989.99
2019-01-30T00:58:07.373Z,989.95
2019-01-30T00:59:07.365Z,989.95
2019-01-30T01:00:14.351Z,989.91
2019-01-30T01:01:07.359Z,989.89
2019-01-30T01:02:07.371Z,989.94
2019-01-30T01:03:07.365Z,989.89
2019-01-30T01:04:07.364Z,989.86
2019-01-30T01:05:07.372Z,989.93
2019-01-30T01:06:07.388Z,989.92
2019-01-30T01:07:07.357Z,989.90
2019-01-30T01:08:07.367Z,989.89
2019-01-30T01:09:07.370Z,989.87
2019-01-30T01:10:07.361Z,989.85
2019-01-30T01:11:07.356Z,989.89
2019-01-30T01:12:07.367Z,989.84
2019-01-30T01:13:07.364Z,989.83
2019-01-30T01:14:07.365Z,989.83
2019-01-30T01:15:07.354Z,989.82
2019-01-30T01:16:07.359Z,989.81
2019-01-30T01:17:07.364Z,989.79
2019-01-30T01:18:07.370Z,989.75
2019-01-30T01:19:07.365Z,989.77
2019-01-30T01:20:07.375Z,989.76
2019-01-30T01:21:07.372Z,989.72
2019-01-30T01:22:07.362Z,989.72
2019-01-30T01:23:07.377Z,989.70
2019-01-30T01:24:07.362Z,989.74
2019-01-30T01:25:07.368Z,989.72
2019-01-30T01:26:07.368Z,989.74
2019-01-30T01:27:07.359Z,989.72
2019-01-30T01:28:07.359Z,989.70
2019-01-30T01:29:07.367Z,989.70
2019-01-30T01:30:07.359Z,989.66
2019-01-30T01:31:07.356Z,989.63
2019-01-30T01:32:07.356Z,989.65
2019-01-30T01:33:07.364Z,989.68
2019-01-30T01:34:07.361Z,989.65
2019-01-30T01:35:07.371Z,989.66
2019-01-30T01:36:07.363Z,989.63
2019-01-30T01:37:07.367Z,989.63
2019-01-30T01:38:07.378Z,989.62
2019-01-30T01:39:07.364Z,989.63
2019-01-30T01:40:07.374Z,989.61
2019-01-30T01:41:07.360Z,989.61
2019-01-30T01:42:07.372Z,989.56
2019-01-30T01:43:07.365Z,989.56
2019-01-30T01:44:07.358Z,989.58
2019-01-30T01:45:07.364Z,989.54
2019-01-30T01:46:07.364Z,989.54
2019-01-30T01:47:07.378Z,989.53
2019-01-30T01:48:07.358Z,989.53
2019-01-30T01:49:07.366Z,989.53
2019-01-30T01:50:07.365Z,989.51
2019-01-30T01:51:07.369Z,989.53
2019-01-30T01:52:07.476Z,989.49
2019-01-30T01:53:07.364Z,989.51
2019-01-30T01:54:07.372Z,989.48
2019-01-30T01:55:07.367Z,989.46
2019-01-30T01:56:07.372Z,989.52
2019-01-30T01:57:07.364Z,989.49
2019-01-30T01:58:07.360Z,989.48
2019-01-30T01:59:07.367Z,989.51
2019-01-30T02:00:07.369Z,989.49
2019-01-30T02:01:07.368Z,989.51
2019-01-30T02:02:07.359Z,989.49
2019-01-30T02:03:07.362Z,989.47
2019-01-30T02:04:07.378Z,989.50
2019-01-30T02:05:07.377Z,989.44
2019-01-30T02:06:07.364Z,989.42
2019-01-30T02:07:07.390Z,989.41
2019-01-30T02:08:07.372Z,989.37
2019-01-30T02:09:07.367Z,989.39
2019-01-30T02:10:07.393Z,989.40
2019-01-30T02:11:07.362Z,989.39
2019-01-30T02:12:07.356Z,989.36
2019-01-30T02:13:07.363Z,989.36
2019-01-30T02:14:07.369Z,989.32
2019-01-30T02:15:07.378Z,989.36
2019-01-30T02:16:07.353Z,989.31
2019-01-30T02:17:07.370Z,989.32
2019-01-30T02:18:08.574Z,989.30
2019-01-30T02:19:07.359Z,989.26
2019-01-30T02:20:07.374Z,989.25
2019-01-30T02:21:07.368Z,989.25
2019-01-30T02:22:07.365Z,989.24
2019-01-30T02:23:07.428Z,989.16
2019-01-30T02:24:07.355Z,989.19
2019-01-30T02:25:07.362Z,989.18
2019-01-30T02:26:07.362Z,989.13
2019-01-30T02:27:07.360Z,989.13
2019-01-30T02:28:07.361Z,989.11
2019-01-30T02:29:07.371Z,989.12
2019-01-30T02:30:07.366Z,989.10
2019-01-30T02:31:07.361Z,989.06
2019-01-30T02:32:07.362Z,989.08
2019-01-30T02:33:07.363Z,989.08
2019-01-30T02:34:07.374Z,989.06
2019-01-30T02:35:07.368Z,989.03
2019-01-30T02:36:07.368Z,989.04
2019-01-30T02:37:07.366Z,988.99
2019-01-30T02:38:07.357Z,989.00
2019-01-30T02:39:07.363Z,988.96
2019-01-30T02:40:07.365Z,988.97
2019-01-30T02:41:07.352Z,988.96
2019-01-30T02:42:07.353Z,988.97
2019-01-30T02:44:07.382Z,988.93
2019-01-30T02:45:07.367Z,988.89
2019-01-30T02:46:07.355Z,988.89
2019-01-30T02:47:07.362Z,988.85
2019-01-30T02:48:07.374Z,988.88
2019-01-30T02:49:07.378Z,988.82
2019-01-30T02:50:07.360Z,988.84
2019-01-30T02:51:07.362Z,988.82
2019-01-30T02:52:07.367Z,988.79
2019-01-30T02:53:07.365Z,988.80
2019-01-30T02:54:07.363Z,988.81
2019-01-30T02:55:07.366Z,988.81
2019-01-30T02:56:07.359Z,988.87
2019-01-30T02:57:07.362Z,988.82
2019-01-30T02:58:07.360Z,988.81
2019-01-30T02:59:07.353Z,988.85
2019-01-30T03:00:07.366Z,988.76
2019-01-30T03:01:07.369Z,988.79
2019-01-30T03:02:07.362Z,988.76
2019-01-30T03:04:07.364Z,988.78
2019-01-30T03:05:07.349Z,988.73
2019-01-30T03:06:07.367Z,988.73
2019-01-30T03:07:07.357Z,988.72
2019-01-30T03:08:07.353Z,988.70
2019-01-30T03:09:07.359Z,988.66
2019-01-30T03:10:07.372Z,988.65
2019-01-30T03:11:07.347Z,988.71
2019-01-30T03:12:07.350Z,988.68
2019-01-30T03:13:07.353Z,988.72
2019-01-30T03:14:07.353Z,988.70
2019-01-30T03:15:07.350Z,988.68
2019-01-30T03:16:07.362Z,988.74
2019-01-30T03:17:07.372Z,988.69
2019-01-30T03:18:07.360Z,988.65
2019-01-30T03:19:07.350Z,988.62
2019-01-30T03:20:07.358Z,988.69
2019-01-30T03:21:07.365Z,988.61
2019-01-30T03:22:07.348Z,988.56
2019-01-30T03:23:07.374Z,988.61
2019-01-30T03:24:07.359Z,988.63
2019-01-30T03:25:07.357Z,988.57
2019-01-30T03:26:07.348Z,988.57
2019-01-30T03:27:07.350Z,988.53
2019-01-30T03:28:07.349Z,988.51
2019-01-30T03:29:07.357Z,988.47
2019-01-30T03:30:07.359Z,988.50
2019-01-30T03:31:17.485Z,988.51
2019-01-30T03:32:07.372Z,988.42
2019-01-30T03:33:07.369Z,988.45
2019-01-30T03:34:07.353Z,988.44
2019-01-30T03:35:07.347Z,988.42
2019-01-30T03:36:07.372Z,988.43
2019-01-30T03:37:07.350Z,988.42
2019-01-30T03:38:07.359Z,988.44
2019-01-30T03:39:07.346Z,988.39
2019-01-30T03:40:07.340Z,988.42
2019-01-30T03:41:07.353Z,988.39
2019-01-30T03:42:07.355Z,988.38
2019-01-30T03:43:07.353Z,988.36
2019-01-30T03:44:07.359Z,988.41
2019-01-30T03:45:07.354Z,988.39
2019-01-30T03:46:07.353Z,988.35
2019-01-30T03:47:07.411Z,988.40
2019-01-30T03:48:07.415Z,988.33
2019-01-30T03:49:07.353Z,988.35
2019-01-30T03:50:07.353Z,988.35
2019-01-30T03:51:07.356Z,988.35
2019-01-30T03:52:07.359Z,988.35
2019-01-30T03:53:07.352Z,988.29
2019-01-30T03:54:07.350Z,988.30
2019-01-30T03:55:07.353Z,988.32
2019-01-30T03:56:07.348Z,988.32
2019-01-30T03:57:07.357Z,988.26
2019-01-30T03:58:07.359Z,988.26
2019-01-30T03:59:07.347Z,988.29
2019-01-30T04:00:07.358Z,988.27
2019-01-30T04:01:07.352Z,988.27
2019-01-30T04:02:07.354Z,988.26
2019-01-30T04:03:07.361Z,988.24
2019-01-30T04:04:07.355Z,988.28
2019-01-30T04:05:07.357Z,988.25
2019-01-30T04:06:07.343Z,988.24
2019-01-30T04:07:07.350Z,988.21
2019-01-30T04:08:07.342Z,988.20
2019-01-30T04:09:07.350Z,988.21
2019-01-30T04:10:07.347Z,988.20
2019-01-30T04:11:07.357Z,988.14
2019-01-30T04:12:07.361Z,988.18
2019-01-30T04:13:07.364Z,988.14
2019-01-30T04:14:07.348Z,988.17
2019-01-30T04:15:07.355Z,988.13
2019-01-30T04:16:07.347Z,988.14
2019-01-30T04:17:07.353Z,988.13
2019-01-30T04:18:07.350Z,988.14
2019-01-30T04:19:07.349Z,988.14
2019-01-30T04:20:07.350Z,988.13
2019-01-30T04:21:07.347Z,988.10
2019-01-30T04:22:07.351Z,988.09
2019-01-30T04:23:07.349Z,988.06
2019-01-30T04:24:07.340Z,988.06
2019-01-30T04:25:07.346Z,988.07
2019-01-30T04:26:07.347Z,988.06
2019-01-30T04:27:07.341Z,988.10
2019-01-30T04:28:07.340Z,988.09
2019-01-30T04:29:07.344Z,988.03
2019-01-30T04:30:07.337Z,988.06
2019-01-30T04:31:07.340Z,988.05
2019-01-30T04:32:07.340Z,988.00
2019-01-30T04:33:07.342Z,988.07
2019-01-30T04:34:07.343Z,988.08
2019-01-30T04:35:07.336Z,988.06
2019-01-30T04:36:07.344Z,988.04
2019-01-30T04:37:07.343Z,988.06
2019-01-30T04:38:07.340Z,988.03
2019-01-30T04:39:07.335Z,988.06
2019-01-30T04:40:07.346Z,988.05
2019-01-30T04:41:07.343Z,988.01
2019-01-30T04:42:07.347Z,988.05
2019-01-30T04:43:07.348Z,988.00
2019-01-30T04:44:07.344Z,988.03
2019-01-30T04:45:07.337Z,988.03
2019-01-30T04:46:07.343Z,988.06
2019-01-30T04:47:07.340Z,988.03
2019-01-30T04:48:07.344Z,988.01
2019-01-30T04:49:07.343Z,988.01
2019-01-30T04:50:07.337Z,988.03
2019-01-30T04:51:07.341Z,988.02
2019-01-30T04:52:07.338Z,987.95
2019-01-30T04:53:07.337Z,987.97
2019-01-30T04:54:07.425Z,987.96
2019-01-30T04:55:07.331Z,987.95
2019-01-30T04:56:07.341Z,987.90
2019-01-30T04:57:07.346Z,987.95
2019-01-30T04:58:07.334Z,987.96
2019-01-30T04:59:07.340Z,987.91
2019-01-30T05:00:07.337Z,987.91
2019-01-30T05:01:07.355Z,987.92
2019-01-30T05:02:07.342Z,987.91
2019-01-30T05:03:07.343Z,987.88
2019-01-30T05:04:07.337Z,987.87
2019-01-30T05:05:07.336Z,987.87
2019-01-30T05:06:07.357Z,987.85
2019-01-30T05:07:07.333Z,987.81
2019-01-30T05:08:07.340Z,987.82
2019-01-30T05:09:07.334Z,987.82
2019-01-30T05:10:07.339Z,987.79
2019-01-30T05:11:07.335Z,987.79
2019-01-30T05:12:07.340Z,987.78
2019-01-30T05:13:07.338Z,987.73
2019-01-30T05:14:07.347Z,987.78
2019-01-30T05:15:07.334Z,987.71
2019-01-30T05:16:07.344Z,987.68
2019-01-30T05:17:07.337Z,987.71
2019-01-30T05:18:07.343Z,987.68
2019-01-30T05:19:07.331Z,987.73
2019-01-30T05:20:09.621Z,987.73
2019-01-30T05:21:07.395Z,987.70
2019-01-30T05:22:07.334Z,987.67
2019-01-30T05:23:07.333Z,987.68
2019-01-30T05:24:07.334Z,987.68
2019-01-30T05:25:07.327Z,987.68
2019-01-30T05:26:07.349Z,987.67
2019-01-30T05:27:07.331Z,987.66
2019-01-30T05:28:07.331Z,987.61
2019-01-30T05:29:07.334Z,987.64
2019-01-30T05:30:07.335Z,987.63
2019-01-30T05:31:07.331Z,987.62
2019-01-30T05:32:07.330Z,987.58
2019-01-30T05:33:07.341Z,987.54
2019-01-30T05:34:07.320Z,987.54
2019-01-30T05:35:07.331Z,987.57
2019-01-30T05:36:07.321Z,987.52
2019-01-30T05:37:07.330Z,987.51
2019-01-30T05:38:07.324Z,987.54
2019-01-30T05:39:07.327Z,987.53
2019-01-30T05:40:07.339Z,987.51
2019-01-30T05:41:07.343Z,987.48
2019-01-30T05:42:07.328Z,987.50
2019-01-30T05:43:07.324Z,987.46
2019-01-30T05:44:07.331Z,987.45
2019-01-30T05:45:07.325Z,987.46
2019-01-30T05:46:07.327Z,987.43
2019-01-30T05:47:07.328Z,987.44
2019-01-30T05:48:07.321Z,987.40
2019-01-30T05:49:07.321Z,987.39
2019-01-30T05:50:07.325Z,987.38
2019-01-30T05:51:07.321Z,987.39
2019-01-30T05:52:07.321Z,987.35
2019-01-30T05:53:07.342Z,987.37
2019-01-30T05:54:07.327Z,987.36
2019-01-30T05:55:07.321Z,987.32
2019-01-30T05:56:07.337Z,987.31
2019-01-30T05:57:07.323Z,987.34
2019-01-30T05:58:07.324Z,987.31
2019-01-30T05:59:07.321Z,987.34
2019-01-30T06:00:07.502Z,987.28
2019-01-30T06:01:07.326Z,987.30
2019-01-30T06:02:12.222Z,987.31
2019-01-30T06:03:07.320Z,987.29
2019-01-30T06:04:07.321Z,987.31
2019-01-30T06:05:07.326Z,987.27
2019-01-30T06:06:07.321Z,987.32
2019-01-30T06:07:07.323Z,987.32
2019-01-30T06:09:07.316Z,987.31
2019-01-30T06:10:07.324Z,987.31
2019-01-30T06:11:07.320Z,987.33
2019-01-30T06:12:07.338Z,987.34
2019-01-30T06:13:07.323Z,987.33
2019-01-30T06:14:07.344Z,987.34
2019-01-30T06:15:07.311Z,987.25
2019-01-30T06:16:07.317Z,987.26
2019-01-30T06:17:09.616Z,987.26
2019-01-30T06:18:07.316Z,987.25
2019-01-30T06:19:07.305Z,987.26
2019-01-30T06:22:07.312Z,987.21
2019-01-30T06:23:07.312Z,987.23
2019-01-30T06:25:07.316Z,987.21
2019-01-30T06:26:07.313Z,987.22
2019-01-30T06:27:07.331Z,987.22
2019-01-30T06:28:07.314Z,987.17
2019-01-30T06:29:07.312Z,987.20
2019-01-30T06:30:07.307Z,987.14
2019-01-30T06:31:07.310Z,987.14
2019-01-30T06:33:07.306Z,987.12
2019-01-30T06:34:07.310Z,987.12
2019-01-30T06:35:07.304Z,987.06
2019-01-30T06:36:07.416Z,987.05
2019-01-30T06:37:07.333Z,987.04
2019-01-30T06:38:07.309Z,987.04
2019-01-30T06:39:07.312Z,987.02
2019-01-30T06:40:07.307Z,986.98
2019-01-30T06:41:07.321Z,987.01
2019-01-30T06:42:07.301Z,986.99
2019-01-30T06:43:07.308Z,986.99
2019-01-30T06:44:07.302Z,986.94
2019-01-30T06:45:07.307Z,986.89
2019-01-30T06:46:07.305Z,986.94
2019-01-30T06:47:07.330Z,986.88
2019-01-30T06:48:07.308Z,986.91
2019-01-30T06:49:07.308Z,986.88
2019-01-30T06:50:07.296Z,986.88
2019-01-30T06:51:07.347Z,986.87
2019-01-30T06:52:07.304Z,986.88
2019-01-30T06:53:07.310Z,986.91
2019-01-30T06:54:07.295Z,986.94
2019-01-30T06:55:07.305Z,986.90
2019-01-30T06:56:07.290Z,986.94
2019-01-30T06:57:07.299Z,986.95
2019-01-30T06:58:07.309Z,986.93
2019-01-30T07:00:07.306Z,986.88
2019-01-30T07:01:07.321Z,986.91
2019-01-30T07:02:07.301Z,986.90
2019-01-30T07:03:07.302Z,986.92
2019-01-30T07:04:07.306Z,986.94
2019-01-30T07:05:07.317Z,986.93
2019-01-30T07:06:07.884Z,986.92
2019-01-30T07:07:07.312Z,986.90
2019-01-30T07:08:07.309Z,986.91
2019-01-30T07:09:07.291Z,986.90
2019-01-30T07:10:07.300Z,986.89
2019-01-30T07:11:10.800Z,986.90
2019-01-30T07:12:07.291Z,986.90
2019-01-30T07:13:07.305Z,986.85
2019-01-30T07:14:07.293Z,986.85
2019-01-30T07:15:07.311Z,986.87
2019-01-30T07:16:07.295Z,986.82
2019-01-30T07:17:07.295Z,986.85
2019-01-30T07:18:07.341Z,986.84
2019-01-30T07:19:07.298Z,986.78
2019-01-30T07:20:07.311Z,986.79
2019-01-30T07:21:07.317Z,986.78
2019-01-30T07:22:07.287Z,986.73
2019-01-30T07:23:07.285Z,986.77
2019-01-30T07:24:07.295Z,986.77
2019-01-30T07:25:07.286Z,986.79
2019-01-30T07:26:07.305Z,986.77
2019-01-30T07:27:07.295Z,986.79
2019-01-30T07:28:07.301Z,986.75
2019-01-30T07:29:07.289Z,986.75
2019-01-30T07:30:07.286Z,986.78
2019-01-30T07:31:07.289Z,986.75
2019-01-30T07:32:07.299Z,986.74
2019-01-30T07:33:07.286Z,986.78
2019-01-30T07:34:07.306Z,986.79
2019-01-30T07:35:07.293Z,986.80
2019-01-30T07:36:07.288Z,986.83
2019-01-30T07:37:07.292Z,986.81
2019-01-30T07:38:07.286Z,986.83
2019-01-30T07:39:07.290Z,986.83
2019-01-30T07:40:07.300Z,986.88
2019-01-30T07:41:07.289Z,986.85
2019-01-30T07:42:07.293Z,986.85
2019-01-30T07:43:07.290Z,986.88
2019-01-30T07:44:07.305Z,986.85
2019-01-30T07:45:07.286Z,986.84
2019-01-30T07:46:07.296Z,986.84
2019-01-30T07:47:07.287Z,986.87
2019-01-30T07:48:07.291Z,986.93
2019-01-30T07:49:07.305Z,986.86
2019-01-30T07:50:07.305Z,986.88
2019-01-30T07:51:07.302Z,986.85
2019-01-30T07:52:07.289Z,986.85
2019-01-30T07:53:07.299Z,986.82
2019-01-30T07:54:07.281Z,986.86
2019-01-30T07:55:07.281Z,986.82
2019-01-30T07:56:07.328Z,986.81
2019-01-30T07:57:07.299Z,986.81
2019-01-30T07:58:07.291Z,986.80
2019-01-30T07:59:07.285Z,986.82
2019-01-30T08:00:07.314Z,986.85
2019-01-30T08:01:07.411Z,986.77
2019-01-30T08:02:07.898Z,986.90
2019-01-30T08:03:07.283Z,986.86
2019-01-30T08:04:07.289Z,986.87
2019-01-30T08:05:07.300Z,986.88
2019-01-30T08:06:07.429Z,986.91
2019-01-30T08:07:07.358Z,986.89
2019-01-30T08:08:07.283Z,986.94
2019-01-30T08:09:07.300Z,986.89
2019-01-30T08:10:07.299Z,986.95
2019-01-30T08:11:07.572Z,986.95
2019-01-30T08:12:07.303Z,986.94
2019-01-30T08:13:07.293Z,986.92
2019-01-30T08:14:07.294Z,987.01
2019-01-30T08:15:07.290Z,987.04
2019-01-30T08:16:07.297Z,987.09
2019-01-30T08:17:07.297Z,987.07
2019-01-30T08:18:07.293Z,987.08
2019-01-30T08:19:07.293Z,987.07
2019-01-30T08:20:07.298Z,987.05
2019-01-30T08:21:07.295Z,987.08
2019-01-30T08:22:07.296Z,987.08
2019-01-30T08:23:07.477Z,987.06
2019-01-30T08:24:07.500Z,987.11
2019-01-30T08:25:07.521Z,987.04
2019-01-30T08:26:07.424Z,987.06
2019-01-30T08:28:07.302Z,987.06
2019-01-30T08:29:07.785Z,987.07
2019-01-30T08:30:07.704Z,987.07
2019-01-30T08:31:07.391Z,987.08
2019-01-30T08:32:07.604Z,986.99
2019-01-30T08:33:07.431Z,987.02
2019-01-30T08:34:07.305Z,987.05
2019-01-30T08:35:07.298Z,986.99
2019-01-30T08:36:07.307Z,986.98
2019-01-30T08:37:07.307Z,987.04
2019-01-30T08:38:07.306Z,987.01
2019-01-30T08:39:07.312Z,987.03
2019-01-30T08:40:07.305Z,987.01
2019-01-30T08:41:07.309Z,986.95
2019-01-30T08:43:07.322Z,987.02
2019-01-30T08:44:07.327Z,986.98
2019-01-30T08:46:07.315Z,986.98
2019-01-30T08:47:07.330Z,987.02
2019-01-30T08:48:07.322Z,987.03
2019-01-30T08:49:07.334Z,986.99
2019-01-30T08:50:07.322Z,987.03
2019-01-30T08:51:07.316Z,987.13
2019-01-30T08:52:07.322Z,987.07
2019-01-30T08:53:07.316Z,987.05
2019-01-30T08:54:07.324Z,987.13
2019-01-30T08:55:07.323Z,987.10
2019-01-30T08:56:07.327Z,987.12
2019-01-30T08:57:07.330Z,987.08
2019-01-30T08:58:07.341Z,987.11
2019-01-30T08:59:07.338Z,987.07
2019-01-30T09:00:07.335Z,987.16
2019-01-30T09:01:07.341Z,987.09
2019-01-30T09:02:07.368Z,987.14
2019-01-30T09:03:14.429Z,987.13
2019-01-30T09:04:07.338Z,987.08
2019-01-30T09:05:07.344Z,987.07
2019-01-30T09:06:07.340Z,987.10
2019-01-30T09:07:07.362Z,987.13
2019-01-30T09:08:08.911Z,987.08
2019-01-30T09:09:07.344Z,987.05
2019-01-30T09:10:07.366Z,987.07
2019-01-30T09:11:07.359Z,987.09
2019-01-30T09:12:07.356Z,987.08
2019-01-30T09:13:07.350Z,987.09
2019-01-30T09:14:07.342Z,987.07
2019-01-30T09:15:07.351Z,987.08
2019-01-30T09:16:07.348Z,987.08
2019-01-30T09:17:08.779Z,987.10
2019-01-30T09:18:07.360Z,987.12
2019-01-30T09:19:07.365Z,987.09
2019-01-30T09:20:07.367Z,987.12
2019-01-30T09:21:07.372Z,987.08
2019-01-30T09:22:07.378Z,987.11
2019-01-30T09:23:07.376Z,987.12
2019-01-30T09:24:07.373Z,987.07
2019-01-30T09:25:07.377Z,987.06
2019-01-30T09:26:07.373Z,987.06
2019-01-30T09:27:07.368Z,987.06
2019-01-30T09:28:07.370Z,987.07
2019-01-30T09:29:07.380Z,987.08
2019-01-30T09:30:07.376Z,987.07
2019-01-30T09:32:07.388Z,987.05
2019-01-30T09:33:07.421Z,987.04
2019-01-30T09:34:07.395Z,987.03
2019-01-30T09:35:07.384Z,987.00
2019-01-30T09:36:07.401Z,987.00
2019-01-30T09:37:07.427Z,986.98
2019-01-30T09:38:07.419Z,986.96
2019-01-30T09:39:07.417Z,986.99
2019-01-30T09:40:07.427Z,986.98
2019-01-30T09:41:07.421Z,986.95
2019-01-30T09:42:07.398Z,986.96
2019-01-30T09:43:07.414Z,986.97
2019-01-30T09:44:07.424Z,986.99
2019-01-30T09:45:09.881Z,986.97
2019-01-30T09:46:07.403Z,987.01
2019-01-30T09:47:07.418Z,987.02
2019-01-30T09:48:07.416Z,987.03
2019-01-30T09:49:07.430Z,987.03
2019-01-30T09:50:07.457Z,987.00
2019-01-30T09:51:07.407Z,987.02
2019-01-30T09:52:07.410Z,987.07
2019-01-30T09:53:07.414Z,987.04
2019-01-30T09:54:07.418Z,987.05
2019-01-30T09:55:07.445Z,987.09
2019-01-30T09:56:07.481Z,987.12
2019-01-30T09:57:07.429Z,987.09
2019-01-30T09:58:07.446Z,987.07
2019-01-30T09:59:07.437Z,987.07
2019-01-30T10:01:07.439Z,987.05
2019-01-30T10:02:07.440Z,987.02
2019-01-30T10:03:07.452Z,986.99
2019-01-30T10:04:07.453Z,987.02
2019-01-30T10:05:07.448Z,987.06
2019-01-30T10:06:07.452Z,987.07
2019-01-30T10:07:07.453Z,987.10
2019-01-30T10:08:07.453Z,987.10
2019-01-30T10:09:07.453Z,987.10
2019-01-30T10:10:07.450Z,987.06
2019-01-30T10:11:07.466Z,987.06
2019-01-30T10:12:07.580Z,987.00
2019-01-30T10:13:07.469Z,987.02
2019-01-30T10:14:07.459Z,987.03
2019-01-30T10:15:07.466Z,987.06
2019-01-30T10:16:07.459Z,987.05
2019-01-30T10:17:07.468Z,987.03
2019-01-30T10:18:07.479Z,987.04
2019-01-30T10:19:07.475Z,987.05
2019-01-30T10:20:07.479Z,987.02
2019-01-30T10:21:07.490Z,986.99
2019-01-30T10:22:07.476Z,987.01
2019-01-30T10:23:07.485Z,986.96
2019-01-30T10:24:07.501Z,986.93
2019-01-30T10:25:07.487Z,986.93
2019-01-30T10:26:07.478Z,986.89
2019-01-30T10:27:07.872Z,986.91
2019-01-30T10:28:16.206Z,986.90
2019-01-30T10:29:07.494Z,986.86
2019-01-30T10:30:07.490Z,986.86
2019-01-30T10:31:07.501Z,986.86
2019-01-30T10:32:07.488Z,986.85
2019-01-30T10:33:07.494Z,986.84
2019-01-30T10:34:07.493Z,986.87
2019-01-30T10:35:07.507Z,986.85
2019-01-30T10:36:07.501Z,986.82
2019-01-30T10:37:07.513Z,986.84
2019-01-30T10:38:07.649Z,986.83
2019-01-30T10:39:07.503Z,986.84
2019-01-30T10:40:07.521Z,986.80
2019-01-30T10:41:07.517Z,986.79
2019-01-30T10:42:07.507Z,986.81
2019-01-30T10:43:07.527Z,986.77
2019-01-30T10:44:07.515Z,986.77
2019-01-30T10:45:07.517Z,986.72
2019-01-30T10:46:07.516Z,986.73
2019-01-30T10:47:07.530Z,986.75
2019-01-30T10:48:07.523Z,986.71
2019-01-30T10:49:07.523Z,986.68
2019-01-30T10:50:07.517Z,986.73
2019-01-30T10:51:07.582Z,986.69
2019-01-30T10:52:07.526Z,986.70
2019-01-30T10:53:07.531Z,986.69
2019-01-30T10:54:07.523Z,986.67
2019-01-30T10:55:07.542Z,986.67
2019-01-30T10:56:07.535Z,986.63
2019-01-30T10:57:07.527Z,986.61
2019-01-30T10:58:07.535Z,986.59
2019-01-30T10:59:07.568Z,986.60
2019-01-30T11:00:07.532Z,986.56
2019-01-30T11:01:07.540Z,986.59
2019-01-30T11:02:07.544Z,986.55
2019-01-30T11:03:07.546Z,986.57
2019-01-30T11:04:07.548Z,986.56
2019-01-30T11:05:07.548Z,986.53
2019-01-30T11:06:07.549Z,986.53
2019-01-30T11:07:07.549Z,986.56
2019-01-30T11:08:07.554Z,986.57
2019-01-30T11:09:07.571Z,986.54
2019-01-30T11:10:07.548Z,986.52
2019-01-30T11:11:08.360Z,986.52
2019-01-30T11:12:07.558Z,986.58
2019-01-30T11:13:07.559Z,986.62
2019-01-30T11:14:07.558Z,986.63
2019-01-30T11:15:07.584Z,986.61
2019-01-30T11:16:07.556Z,986.61
2019-01-30T11:17:08.687Z,986.63
2019-01-30T11:18:07.621Z,986.65
2019-01-30T11:19:07.560Z,986.63
2019-01-30T11:20:07.570Z,986.61
2019-01-30T11:21:07.567Z,986.62
2019-01-30T11:22:07.563Z,986.60
2019-01-30T11:23:07.569Z,986.61
2019-01-30T11:24:07.567Z,986.65
2019-01-30T11:25:07.570Z,986.62
2019-01-30T11:26:07.570Z,986.62
2019-01-30T11:27:07.566Z,986.64
2019-01-30T11:28:07.568Z,986.61
2019-01-30T11:29:07.570Z,986.66
2019-01-30T11:30:07.580Z,986.60
2019-01-30T11:31:07.582Z,986.62
2019-01-30T11:32:07.567Z,986.59
2019-01-30T11:33:07.574Z,986.62
2019-01-30T11:34:08.064Z,986.62
2019-01-30T11:35:07.572Z,986.62
2019-01-30T11:36:07.572Z,986.58
2019-01-30T11:37:07.593Z,986.63
2019-01-30T11:38:08.982Z,986.61
2019-01-30T11:39:07.579Z,986.62
2019-01-30T11:40:07.580Z,986.58
2019-01-30T11:41:07.576Z,986.57
2019-01-30T11:42:07.586Z,986.57
2019-01-30T11:43:07.580Z,986.58
2019-01-30T11:44:07.584Z,986.59
2019-01-30T11:45:07.584Z,986.57
2019-01-30T11:46:07.578Z,986.59
2019-01-30T11:47:07.587Z,986.60
2019-01-30T11:48:07.582Z,986.65
2019-01-30T11:49:07.641Z,986.62
2019-01-30T11:50:07.586Z,986.57
2019-01-30T11:51:07.623Z,986.60
2019-01-30T11:52:07.598Z,986.60
2019-01-30T11:53:07.602Z,986.62
2019-01-30T11:54:07.593Z,986.61
2019-01-30T11:55:07.591Z,986.61
2019-01-30T11:56:07.600Z,986.60
2019-01-30T11:57:07.598Z,986.59
2019-01-30T11:58:07.596Z,986.64
2019-01-30T11:59:07.602Z,986.62
2019-01-30T12:00:07.613Z,986.64
2019-01-30T12:01:07.609Z,986.57
2019-01-30T12:02:07.596Z,986.64
2019-01-30T12:03:07.611Z,986.64
2019-01-30T12:04:17.485Z,986.61
2019-01-30T12:05:07.604Z,986.60
2019-01-30T12:06:07.596Z,986.59
2019-01-30T12:07:07.600Z,986.59
2019-01-30T12:08:07.604Z,986.62
2019-01-30T12:09:07.637Z,986.63
2019-01-30T12:10:07.604Z,986.63
2019-01-30T12:11:07.606Z,986.64
2019-01-30T12:12:07.622Z,986.64
2019-01-30T12:13:07.611Z,986.60
2019-01-30T12:14:07.702Z,986.59
2019-01-30T12:15:07.625Z,986.62
2019-01-30T12:16:07.613Z,986.58
2019-01-30T12:17:07.618Z,986.56
2019-01-30T12:18:07.613Z,986.56
2019-01-30T12:19:07.628Z,986.54
2019-01-30T12:20:07.625Z,986.57
2019-01-30T12:21:07.622Z,986.52
2019-01-30T12:22:07.642Z,986.53
2019-01-30T12:24:07.622Z,986.50
2019-01-30T12:25:07.661Z,986.50
2019-01-30T12:26:07.630Z,986.50
2019-01-30T12:27:07.630Z,986.46
2019-01-30T12:29:07.635Z,986.44
2019-01-30T12:30:07.635Z,986.43
2019-01-30T12:31:07.647Z,986.45
2019-01-30T12:32:07.633Z,986.43
2019-01-30T12:33:07.638Z,986.44
2019-01-30T12:34:07.646Z,986.40
2019-01-30T12:35:07.633Z,986.42
2019-01-30T12:36:07.631Z,986.37
2019-01-30T12:37:07.638Z,986.40
2019-01-30T12:38:07.649Z,986.34
2019-01-30T12:39:07.715Z,986.41
2019-01-30T12:40:07.663Z,986.38
2019-01-30T12:41:07.645Z,986.33
2019-01-30T12:42:07.645Z,986.36
2019-01-30T12:43:07.656Z,986.34